Terminal Aerodrome Forecast
Issued by NWS

Home | Current Version | Previous Version | Text Only | Print | Product List | Glossary On
Versions: 1 2 3 4 5 6 7 8 9 10 11 12 13
000
FTPA31 PHFO 241100
TAFKOA
TAF
PHKO 241120Z 2412/2512 06007KT P6SM FEW025 SCT045
     FM242000 24008KT P6SM FEW035 SCT060
     FM250300 18007KT P6SM FEW030 BKN050
     FM250700 08006KT P6SM FEW025 SCT045=

USA.gov is the U.S. government's official web portal to all federal, state and local government web resources and services.